sensor_id;sensor_type;location;lat;lon;timestamp;P1;durP1;ratioP1;P2;durP2;ratioP2
20008;SDS011;10165;42.662;23.260;2023-06-22T00:01:21;6.47;;;4.37;;
20008;SDS011;10165;42.662;23.260;2023-06-22T00:03:51;8.70;;;4.60;;
20008;SDS011;10165;42.662;23.260;2023-06-22T00:06:18;11.07;;;4.30;;
20008;SDS011;10165;42.662;23.260;2023-06-22T00:08:44;5.07;;;4.47;;
20008;SDS011;10165;42.662;23.260;2023-06-22T00:11:11;5.43;;;4.53;;
20008;SDS011;10165;42.662;23.260;2023-06-22T00:13:38;6.27;;;5.03;;
20008;SDS011;10165;42.662;23.260;2023-06-22T00:16:06;6.60;;;4.73;;
20008;SDS011;10165;42.662;23.260;2023-06-22T00:18:33;5.03;;;4.50;;
20008;SDS011;10165;42.662;23.260;2023-06-22T00:20:59;5.20;;;4.40;;
20008;SDS011;10165;42.662;23.260;2023-06-22T00:23:28;8.27;;;4.80;;
20008;SDS011;10165;42.662;23.260;2023-06-22T00:25:54;10.77;;;4.67;;
20008;SDS011;10165;42.662;23.260;2023-06-22T00:28:21;7.13;;;4.57;;
20008;SDS011;10165;42.662;23.260;2023-06-22T00:30:51;5.63;;;4.50;;
20008;SDS011;10165;42.662;23.260;2023-06-22T00:33:18;9.77;;;4.80;;
20008;SDS011;10165;42.662;23.260;2023-06-22T00:35:44;5.60;;;4.50;;
20008;SDS011;10165;42.662;23.260;2023-06-22T00:38:11;6.53;;;4.77;;
20008;SDS011;10165;42.662;23.260;2023-06-22T00:40:38;6.43;;;4.70;;
20008;SDS011;10165;42.662;23.260;2023-06-22T00:43:05;7.97;;;5.53;;
20008;SDS011;10165;42.662;23.260;2023-06-22T00:45:32;8.67;;;5.03;;
20008;SDS011;10165;42.662;23.260;2023-06-22T00:47:59;5.93;;;4.80;;
20008;SDS011;10165;42.662;23.260;2023-06-22T00:50:30;6.30;;;5.03;;
20008;SDS011;10165;42.662;23.260;2023-06-22T00:53:04;6.90;;;4.57;;
20008;SDS011;10165;42.662;23.260;2023-06-22T00:55:36;10.40;;;5.40;;
20008;SDS011;10165;42.662;23.260;2023-06-22T00:58:10;11.00;;;5.03;;
20008;SDS011;10165;42.662;23.260;2023-06-22T01:00:38;8.37;;;5.20;;
20008;SDS011;10165;42.662;23.260;2023-06-22T01:03:06;6.03;;;4.83;;
20008;SDS011;10165;42.662;23.260;2023-06-22T01:05:37;6.73;;;5.03;;
20008;SDS011;10165;42.662;23.260;2023-06-22T01:11:18;5.70;;;4.67;;
20008;SDS011;10165;42.662;23.260;2023-06-22T01:13:57;7.73;;;5.50;;
20008;SDS011;10165;42.662;23.260;2023-06-22T01:16:31;11.77;;;5.37;;
20008;SDS011;10165;42.662;23.260;2023-06-22T01:19:01;7.70;;;5.47;;
20008;SDS011;10165;42.662;23.260;2023-06-22T01:21:52;7.67;;;5.37;;
20008;SDS011;10165;42.662;23.260;2023-06-22T01:24:22;9.57;;;5.50;;
20008;SDS011;10165;42.662;23.260;2023-06-22T01:26:57;7.50;;;5.50;;
20008;SDS011;10165;42.662;23.260;2023-06-22T01:29:31;9.13;;;5.50;;
20008;SDS011;10165;42.662;23.260;2023-06-22T01:32:01;6.90;;;5.27;;
20008;SDS011;10165;42.662;23.260;2023-06-22T01:34:32;8.37;;;6.00;;
20008;SDS011;10165;42.662;23.260;2023-06-22T01:36:59;7.93;;;5.53;;
20008;SDS011;10165;42.662;23.260;2023-06-22T01:39:28;8.53;;;5.70;;
20008;SDS011;10165;42.662;23.260;2023-06-22T01:41:56;8.20;;;6.30;;
20008;SDS011;10165;42.662;23.260;2023-06-22T01:44:23;6.70;;;5.53;;
20008;SDS011;10165;42.662;23.260;2023-06-22T01:46:52;9.30;;;6.07;;
20008;SDS011;10165;42.662;23.260;2023-06-22T01:49:19;6.03;;;5.40;;
20008;SDS011;10165;42.662;23.260;2023-06-22T01:51:46;7.80;;;5.57;;
20008;SDS011;10165;42.662;23.260;2023-06-22T01:54:13;10.63;;;6.20;;
20008;SDS011;10165;42.662;23.260;2023-06-22T01:56:40;7.03;;;5.63;;
20008;SDS011;10165;42.662;23.260;2023-06-22T01:59:12;7.57;;;6.20;;
20008;SDS011;10165;42.662;23.260;2023-06-22T02:01:44;6.80;;;5.23;;
20008;SDS011;10165;42.662;23.260;2023-06-22T02:04:19;11.93;;;5.77;;
20008;SDS011;10165;42.662;23.260;2023-06-22T02:06:51;7.27;;;5.63;;
20008;SDS011;10165;42.662;23.260;2023-06-22T02:09:22;9.47;;;6.07;;
20008;SDS011;10165;42.662;23.260;2023-06-22T02:11:52;6.57;;;5.53;;
20008;SDS011;10165;42.662;23.260;2023-06-22T02:14:22;7.13;;;5.67;;
20008;SDS011;10165;42.662;23.260;2023-06-22T02:16:50;7.90;;;5.50;;
20008;SDS011;10165;42.662;23.260;2023-06-22T02:19:22;7.10;;;5.30;;
20008;SDS011;10165;42.662;23.260;2023-06-22T02:21:49;12.53;;;5.97;;
20008;SDS011;10165;42.662;23.260;2023-06-22T02:24:16;8.40;;;5.43;;
20008;SDS011;10165;42.662;23.260;2023-06-22T02:26:43;7.60;;;5.27;;
20008;SDS011;10165;42.662;23.260;2023-06-22T02:29:11;8.60;;;4.87;;
20008;SDS011;10165;42.662;23.260;2023-06-22T02:31:38;8.67;;;6.03;;
20008;SDS011;10165;42.662;23.260;2023-06-22T02:34:06;8.40;;;5.80;;
20008;SDS011;10165;42.662;23.260;2023-06-22T02:36:32;6.40;;;5.07;;
20008;SDS011;10165;42.662;23.260;2023-06-22T02:38:59;7.93;;;6.00;;
20008;SDS011;10165;42.662;23.260;2023-06-22T02:41:28;15.57;;;5.47;;
20008;SDS011;10165;42.662;23.260;2023-06-22T02:43:54;6.30;;;5.50;;
20008;SDS011;10165;42.662;23.260;2023-06-22T02:46:21;11.33;;;5.83;;
20008;SDS011;10165;42.662;23.260;2023-06-22T02:48:48;7.57;;;5.93;;
20008;SDS011;10165;42.662;23.260;2023-06-22T02:51:15;7.73;;;5.30;;
20008;SDS011;10165;42.662;23.260;2023-06-22T02:53:42;8.33;;;5.93;;
20008;SDS011;10165;42.662;23.260;2023-06-22T02:56:11;9.50;;;6.03;;
20008;SDS011;10165;42.662;23.260;2023-06-22T02:58:39;11.40;;;5.90;;
20008;SDS011;10165;42.662;23.260;2023-06-22T03:01:06;8.50;;;5.33;;
20008;SDS011;10165;42.662;23.260;2023-06-22T03:03:33;8.70;;;5.57;;
20008;SDS011;10165;42.662;23.260;2023-06-22T03:05:59;10.13;;;5.50;;
20008;SDS011;10165;42.662;23.260;2023-06-22T03:08:27;7.93;;;5.83;;
20008;SDS011;10165;42.662;23.260;2023-06-22T03:10:55;10.67;;;6.00;;
20008;SDS011;10165;42.662;23.260;2023-06-22T03:13:22;10.73;;;6.20;;
20008;SDS011;10165;42.662;23.260;2023-06-22T03:15:49;9.17;;;5.77;;
20008;SDS011;10165;42.662;23.260;2023-06-22T03:18:16;7.53;;;5.73;;
20008;SDS011;10165;42.662;23.260;2023-06-22T03:20:42;8.40;;;6.07;;
20008;SDS011;10165;42.662;23.260;2023-06-22T03:23:09;9.63;;;6.83;;
20008;SDS011;10165;42.662;23.260;2023-06-22T03:25:36;9.83;;;5.97;;
20008;SDS011;10165;42.662;23.260;2023-06-22T03:28:02;6.93;;;5.87;;
20008;SDS011;10165;42.662;23.260;2023-06-22T03:30:29;10.07;;;6.33;;
20008;SDS011;10165;42.662;23.260;2023-06-22T03:32:56;11.57;;;6.07;;
20008;SDS011;10165;42.662;23.260;2023-06-22T03:35:23;8.90;;;6.70;;
20008;SDS011;10165;42.662;23.260;2023-06-22T03:37:50;8.87;;;6.67;;
20008;SDS011;10165;42.662;23.260;2023-06-22T03:40:16;7.30;;;5.97;;
20008;SDS011;10165;42.662;23.260;2023-06-22T03:42:43;12.07;;;6.13;;
20008;SDS011;10165;42.662;23.260;2023-06-22T03:45:10;7.63;;;6.30;;
20008;SDS011;10165;42.662;23.260;2023-06-22T03:47:37;10.60;;;6.10;;
20008;SDS011;10165;42.662;23.260;2023-06-22T03:50:04;11.40;;;6.23;;
20008;SDS011;10165;42.662;23.260;2023-06-22T03:52:32;12.50;;;5.70;;
20008;SDS011;10165;42.662;23.260;2023-06-22T03:54:59;8.13;;;5.90;;
20008;SDS011;10165;42.662;23.260;2023-06-22T03:57:25;8.53;;;6.33;;
20008;SDS011;10165;42.662;23.260;2023-06-22T03:59:53;9.03;;;6.33;;
20008;SDS011;10165;42.662;23.260;2023-06-22T04:02:23;11.23;;;6.40;;
20008;SDS011;10165;42.662;23.260;2023-06-22T04:04:49;7.57;;;5.90;;
20008;SDS011;10165;42.662;23.260;2023-06-22T04:07:16;8.97;;;5.83;;
20008;SDS011;10165;42.662;23.260;2023-06-22T04:09:44;8.57;;;5.93;;
20008;SDS011;10165;42.662;23.260;2023-06-22T04:12:11;6.37;;;5.73;;
20008;SDS011;10165;42.662;23.260;2023-06-22T04:14:37;11.03;;;7.37;;
20008;SDS011;10165;42.662;23.260;2023-06-22T04:17:04;9.10;;;6.37;;
20008;SDS011;10165;42.662;23.260;2023-06-22T04:19:31;8.03;;;6.23;;
20008;SDS011;10165;42.662;23.260;2023-06-22T04:21:57;8.63;;;6.57;;
20008;SDS011;10165;42.662;23.260;2023-06-22T04:24:24;12.97;;;6.77;;
20008;SDS011;10165;42.662;23.260;2023-06-22T04:26:51;10.10;;;6.90;;
20008;SDS011;10165;42.662;23.260;2023-06-22T04:29:21;14.77;;;7.23;;
20008;SDS011;10165;42.662;23.260;2023-06-22T04:31:55;11.47;;;7.27;;
20008;SDS011;10165;42.662;23.260;2023-06-22T04:34:24;11.73;;;7.27;;
20008;SDS011;10165;42.662;23.260;2023-06-22T04:36:54;13.13;;;7.33;;
20008;SDS011;10165;42.662;23.260;2023-06-22T04:39:21;15.13;;;7.60;;
20008;SDS011;10165;42.662;23.260;2023-06-22T04:41:48;12.67;;;7.90;;
20008;SDS011;10165;42.662;23.260;2023-06-22T04:44:15;12.20;;;7.30;;
20008;SDS011;10165;42.662;23.260;2023-06-22T04:46:50;12.40;;;8.10;;
20008;SDS011;10165;42.662;23.260;2023-06-22T04:49:20;12.20;;;7.40;;
20008;SDS011;10165;42.662;23.260;2023-06-22T04:51:48;10.07;;;7.60;;
20008;SDS011;10165;42.662;23.260;2023-06-22T04:54:18;11.53;;;7.47;;
20008;SDS011;10165;42.662;23.260;2023-06-22T04:56:45;10.83;;;7.63;;
20008;SDS011;10165;42.662;23.260;2023-06-22T04:59:13;14.23;;;8.63;;
20008;SDS011;10165;42.662;23.260;2023-06-22T05:01:39;11.90;;;8.33;;
20008;SDS011;10165;42.662;23.260;2023-06-22T05:04:06;16.50;;;8.80;;
20008;SDS011;10165;42.662;23.260;2023-06-22T05:06:34;12.03;;;7.87;;
20008;SDS011;10165;42.662;23.260;2023-06-22T05:09:01;11.67;;;7.40;;
20008;SDS011;10165;42.662;23.260;2023-06-22T05:11:29;16.37;;;7.63;;
20008;SDS011;10165;42.662;23.260;2023-06-22T05:13:56;10.60;;;8.30;;
20008;SDS011;10165;42.662;23.260;2023-06-22T05:16:22;12.03;;;7.23;;
20008;SDS011;10165;42.662;23.260;2023-06-22T05:18:54;14.73;;;9.07;;
20008;SDS011;10165;42.662;23.260;2023-06-22T05:21:22;13.23;;;7.97;;
20008;SDS011;10165;42.662;23.260;2023-06-22T05:23:53;16.50;;;9.50;;
20008;SDS011;10165;42.662;23.260;2023-06-22T05:26:20;10.80;;;8.70;;
20008;SDS011;10165;42.662;23.260;2023-06-22T05:28:50;14.30;;;8.93;;
20008;SDS011;10165;42.662;23.260;2023-06-22T05:31:16;12.10;;;8.63;;
20008;SDS011;10165;42.662;23.260;2023-06-22T05:33:43;14.43;;;9.57;;
20008;SDS011;10165;42.662;23.260;2023-06-22T05:36:10;13.73;;;9.77;;
20008;SDS011;10165;42.662;23.260;2023-06-22T05:38:39;13.50;;;8.90;;
20008;SDS011;10165;42.662;23.260;2023-06-22T05:41:06;12.57;;;8.87;;
20008;SDS011;10165;42.662;23.260;2023-06-22T05:43:33;11.63;;;8.90;;
20008;SDS011;10165;42.662;23.260;2023-06-22T05:46:01;14.43;;;8.63;;
20008;SDS011;10165;42.662;23.260;2023-06-22T05:48:28;13.43;;;8.90;;
20008;SDS011;10165;42.662;23.260;2023-06-22T05:50:55;10.13;;;8.83;;
20008;SDS011;10165;42.662;23.260;2023-06-22T05:53:22;18.77;;;8.90;;
20008;SDS011;10165;42.662;23.260;2023-06-22T05:55:48;17.20;;;10.07;;
20008;SDS011;10165;42.662;23.260;2023-06-22T05:58:15;12.17;;;8.63;;
20008;SDS011;10165;42.662;23.260;2023-06-22T06:00:42;14.47;;;8.40;;
20008;SDS011;10165;42.662;23.260;2023-06-22T06:03:10;11.43;;;8.87;;
20008;SDS011;10165;42.662;23.260;2023-06-22T06:05:40;11.60;;;8.97;;
20008;SDS011;10165;42.662;23.260;2023-06-22T06:08:08;14.93;;;8.37;;
20008;SDS011;10165;42.662;23.260;2023-06-22T06:10:37;12.60;;;8.40;;
20008;SDS011;10165;42.662;23.260;2023-06-22T06:13:04;14.37;;;9.37;;
20008;SDS011;10165;42.662;23.260;2023-06-22T06:15:31;23.73;;;9.77;;
20008;SDS011;10165;42.662;23.260;2023-06-22T06:17:58;13.20;;;8.70;;
20008;SDS011;10165;42.662;23.260;2023-06-22T06:20:26;13.27;;;9.10;;
20008;SDS011;10165;42.662;23.260;2023-06-22T06:22:56;13.47;;;8.90;;
20008;SDS011;10165;42.662;23.260;2023-06-22T06:25:23;12.97;;;9.23;;
20008;SDS011;10165;42.662;23.260;2023-06-22T06:27:51;13.10;;;8.70;;
20008;SDS011;10165;42.662;23.260;2023-06-22T06:30:18;17.27;;;9.03;;
20008;SDS011;10165;42.662;23.260;2023-06-22T06:32:45;16.63;;;9.17;;
20008;SDS011;10165;42.662;23.260;2023-06-22T06:35:13;11.03;;;8.20;;
20008;SDS011;10165;42.662;23.260;2023-06-22T06:37:43;16.60;;;9.33;;
20008;SDS011;10165;42.662;23.260;2023-06-22T06:40:12;12.47;;;8.73;;
20008;SDS011;10165;42.662;23.260;2023-06-22T06:42:43;17.33;;;8.63;;
20008;SDS011;10165;42.662;23.260;2023-06-22T06:45:12;11.93;;;8.67;;
20008;SDS011;10165;42.662;23.260;2023-06-22T06:47:43;17.07;;;8.83;;
20008;SDS011;10165;42.662;23.260;2023-06-22T06:50:10;13.23;;;8.43;;
20008;SDS011;10165;42.662;23.260;2023-06-22T06:52:37;15.47;;;7.93;;
20008;SDS011;10165;42.662;23.260;2023-06-22T06:55:05;17.70;;;8.37;;
20008;SDS011;10165;42.662;23.260;2023-06-22T06:57:35;11.80;;;8.17;;
20008;SDS011;10165;42.662;23.260;2023-06-22T07:00:06;15.57;;;8.23;;
20008;SDS011;10165;42.662;23.260;2023-06-22T07:02:42;8.97;;;7.30;;
20008;SDS011;10165;42.662;23.260;2023-06-22T07:05:10;11.63;;;7.33;;
20008;SDS011;10165;42.662;23.260;2023-06-22T07:07:38;12.27;;;8.03;;
20008;SDS011;10165;42.662;23.260;2023-06-22T07:10:05;14.93;;;8.40;;
20008;SDS011;10165;42.662;23.260;2023-06-22T07:12:33;13.60;;;7.93;;
20008;SDS011;10165;42.662;23.260;2023-06-22T07:15:03;12.07;;;8.33;;
20008;SDS011;10165;42.662;23.260;2023-06-22T07:17:31;12.50;;;8.37;;
20008;SDS011;10165;42.662;23.260;2023-06-22T07:19:58;9.73;;;7.43;;
20008;SDS011;10165;42.662;23.260;2023-06-22T07:22:25;14.43;;;8.80;;
20008;SDS011;10165;42.662;23.260;2023-06-22T07:24:52;8.63;;;7.77;;
20008;SDS011;10165;42.662;23.260;2023-06-22T07:27:18;12.10;;;8.27;;
20008;SDS011;10165;42.662;23.260;2023-06-22T07:29:46;14.70;;;8.97;;
20008;SDS011;10165;42.662;23.260;2023-06-22T07:32:12;12.30;;;7.93;;
20008;SDS011;10165;42.662;23.260;2023-06-22T07:34:39;17.97;;;9.37;;
20008;SDS011;10165;42.662;23.260;2023-06-22T07:37:06;16.40;;;9.13;;
20008;SDS011;10165;42.662;23.260;2023-06-22T07:39:33;11.50;;;9.20;;
20008;SDS011;10165;42.662;23.260;2023-06-22T07:42:00;11.80;;;8.13;;
20008;SDS011;10165;42.662;23.260;2023-06-22T07:44:27;9.93;;;8.20;;
20008;SDS011;10165;42.662;23.260;2023-06-22T07:46:54;11.00;;;8.80;;
20008;SDS011;10165;42.662;23.260;2023-06-22T07:49:20;12.50;;;8.77;;
20008;SDS011;10165;42.662;23.260;2023-06-22T07:51:47;11.33;;;8.43;;
20008;SDS011;10165;42.662;23.260;2023-06-22T07:54:14;13.17;;;8.27;;
20008;SDS011;10165;42.662;23.260;2023-06-22T07:56:42;11.53;;;9.27;;
20008;SDS011;10165;42.662;23.260;2023-06-22T07:59:09;12.67;;;8.90;;
20008;SDS011;10165;42.662;23.260;2023-06-22T08:01:36;12.37;;;8.97;;
20008;SDS011;10165;42.662;23.260;2023-06-22T08:04:03;13.17;;;9.00;;
20008;SDS011;10165;42.662;23.260;2023-06-22T08:06:30;13.97;;;9.03;;
20008;SDS011;10165;42.662;23.260;2023-06-22T08:08:57;10.93;;;8.40;;
20008;SDS011;10165;42.662;23.260;2023-06-22T08:11:25;11.93;;;8.27;;
20008;SDS011;10165;42.662;23.260;2023-06-22T08:13:52;15.20;;;9.03;;
20008;SDS011;10165;42.662;23.260;2023-06-22T08:16:19;10.43;;;8.47;;
20008;SDS011;10165;42.662;23.260;2023-06-22T08:18:45;13.83;;;9.23;;
20008;SDS011;10165;42.662;23.260;2023-06-22T08:21:12;13.97;;;9.23;;
20008;SDS011;10165;42.662;23.260;2023-06-22T08:23:39;9.87;;;8.53;;
20008;SDS011;10165;42.662;23.260;2023-06-22T08:26:05;11.23;;;8.97;;
20008;SDS011;10165;42.662;23.260;2023-06-22T08:28:32;10.50;;;8.80;;
20008;SDS011;10165;42.662;23.260;2023-06-22T08:30:59;9.97;;;8.07;;
20008;SDS011;10165;42.662;23.260;2023-06-22T08:33:27;10.90;;;8.63;;
20008;SDS011;10165;42.662;23.260;2023-06-22T08:35:55;12.37;;;8.83;;
20008;SDS011;10165;42.662;23.260;2023-06-22T08:38:22;13.17;;;9.10;;
20008;SDS011;10165;42.662;23.260;2023-06-22T08:40:48;14.37;;;8.73;;
20008;SDS011;10165;42.662;23.260;2023-06-22T08:43:15;10.73;;;8.83;;
20008;SDS011;10165;42.662;23.260;2023-06-22T08:45:42;12.03;;;8.40;;
20008;SDS011;10165;42.662;23.260;2023-06-22T08:48:10;11.30;;;8.50;;
20008;SDS011;10165;42.662;23.260;2023-06-22T08:50:37;12.13;;;9.30;;
20008;SDS011;10165;42.662;23.260;2023-06-22T08:53:03;14.43;;;8.27;;
20008;SDS011;10165;42.662;23.260;2023-06-22T08:55:30;10.00;;;8.07;;
20008;SDS011;10165;42.662;23.260;2023-06-22T08:57:57;9.57;;;7.47;;
20008;SDS011;10165;42.662;23.260;2023-06-22T09:00:24;8.00;;;7.20;;
20008;SDS011;10165;42.662;23.260;2023-06-22T09:02:51;7.87;;;6.20;;
20008;SDS011;10165;42.662;23.260;2023-06-22T09:05:18;8.30;;;6.80;;
20008;SDS011;10165;42.662;23.260;2023-06-22T09:07:45;10.20;;;7.83;;
20008;SDS011;10165;42.662;23.260;2023-06-22T09:10:12;8.70;;;7.47;;
20008;SDS011;10165;42.662;23.260;2023-06-22T09:12:39;8.52;;;7.00;;
20008;SDS011;10165;42.662;23.260;2023-06-22T09:15:06;10.10;;;7.23;;
20008;SDS011;10165;42.662;23.260;2023-06-22T09:17:37;9.77;;;7.03;;
20008;SDS011;10165;42.662;23.260;2023-06-22T09:20:05;9.32;;;6.68;;
20008;SDS011;10165;42.662;23.260;2023-06-22T09:22:33;9.88;;;7.05;;
20008;SDS011;10165;42.662;23.260;2023-06-22T09:25:00;9.20;;;7.25;;
20008;SDS011;10165;42.662;23.260;2023-06-22T09:27:27;11.27;;;7.50;;
20008;SDS011;10165;42.662;23.260;2023-06-22T09:29:53;9.70;;;7.07;;
20008;SDS011;10165;42.662;23.260;2023-06-22T09:32:20;8.38;;;7.38;;
20008;SDS011;10165;42.662;23.260;2023-06-22T09:34:47;9.07;;;7.22;;
20008;SDS011;10165;42.662;23.260;2023-06-22T09:37:14;8.68;;;6.78;;
20008;SDS011;10165;42.662;23.260;2023-06-22T09:39:40;8.38;;;7.10;;
20008;SDS011;10165;42.662;23.260;2023-06-22T09:42:07;10.63;;;6.78;;
20008;SDS011;10165;42.662;23.260;2023-06-22T09:44:34;8.82;;;6.60;;
20008;SDS011;10165;42.662;23.260;2023-06-22T09:47:01;8.00;;;6.80;;
20008;SDS011;10165;42.662;23.260;2023-06-22T09:49:29;10.25;;;7.10;;
20008;SDS011;10165;42.662;23.260;2023-06-22T09:52:13;11.65;;;6.57;;
20008;SDS011;10165;42.662;23.260;2023-06-22T09:54:40;8.80;;;6.55;;
20008;SDS011;10165;42.662;23.260;2023-06-22T09:57:06;8.05;;;6.53;;
20008;SDS011;10165;42.662;23.260;2023-06-22T09:59:33;7.68;;;6.25;;
20008;SDS011;10165;42.662;23.260;2023-06-22T10:02:03;12.07;;;6.90;;
20008;SDS011;10165;42.662;23.260;2023-06-22T10:04:30;7.63;;;6.28;;
20008;SDS011;10165;42.662;23.260;2023-06-22T10:06:57;7.50;;;6.18;;
20008;SDS011;10165;42.662;23.260;2023-06-22T10:09:24;7.18;;;6.20;;
20008;SDS011;10165;42.662;23.260;2023-06-22T10:11:51;6.90;;;5.90;;
20008;SDS011;10165;42.662;23.260;2023-06-22T10:14:18;7.57;;;5.78;;
20008;SDS011;10165;42.662;23.260;2023-06-22T10:16:44;8.05;;;6.60;;
20008;SDS011;10165;42.662;23.260;2023-06-22T10:19:11;8.20;;;6.30;;
20008;SDS011;10165;42.662;23.260;2023-06-22T10:21:38;7.78;;;6.38;;
20008;SDS011;10165;42.662;23.260;2023-06-22T10:24:05;8.80;;;6.78;;
20008;SDS011;10165;42.662;23.260;2023-06-22T10:26:35;8.65;;;6.25;;
20008;SDS011;10165;42.662;23.260;2023-06-22T10:29:03;10.25;;;5.82;;
20008;SDS011;10165;42.662;23.260;2023-06-22T10:31:42;9.15;;;6.32;;
20008;SDS011;10165;42.662;23.260;2023-06-22T10:34:09;8.35;;;7.00;;
20008;SDS011;10165;42.662;23.260;2023-06-22T10:36:36;10.27;;;7.07;;
20008;SDS011;10165;42.662;23.260;2023-06-22T10:39:02;9.68;;;6.63;;
20008;SDS011;10165;42.662;23.260;2023-06-22T10:41:29;11.15;;;7.05;;
20008;SDS011;10165;42.662;23.260;2023-06-22T10:43:57;10.00;;;6.55;;
20008;SDS011;10165;42.662;23.260;2023-06-22T10:46:25;8.65;;;7.20;;
20008;SDS011;10165;42.662;23.260;2023-06-22T10:48:54;7.47;;;6.43;;
20008;SDS011;10165;42.662;23.260;2023-06-22T10:51:23;11.38;;;6.85;;
20008;SDS011;10165;42.662;23.260;2023-06-22T10:53:50;10.00;;;7.45;;
20008;SDS011;10165;42.662;23.260;2023-06-22T10:56:17;7.78;;;6.47;;
20008;SDS011;10165;42.662;23.260;2023-06-22T10:58:45;8.15;;;6.38;;
20008;SDS011;10165;42.662;23.260;2023-06-22T11:01:12;8.43;;;6.55;;
20008;SDS011;10165;42.662;23.260;2023-06-22T11:03:59;8.02;;;7.22;;
20008;SDS011;10165;42.662;23.260;2023-06-22T11:06:27;10.30;;;6.88;;
20008;SDS011;10165;42.662;23.260;2023-06-22T11:08:53;9.98;;;7.18;;
20008;SDS011;10165;42.662;23.260;2023-06-22T11:11:37;7.75;;;6.72;;
20008;SDS011;10165;42.662;23.260;2023-06-22T11:14:04;7.43;;;6.30;;
20008;SDS011;10165;42.662;23.260;2023-06-22T11:16:31;9.30;;;7.20;;
20008;SDS011;10165;42.662;23.260;2023-06-22T11:18:57;9.68;;;6.70;;
20008;SDS011;10165;42.662;23.260;2023-06-22T11:21:24;9.30;;;6.65;;
20008;SDS011;10165;42.662;23.260;2023-06-22T11:23:51;11.93;;;9.95;;
20008;SDS011;10165;42.662;23.260;2023-06-22T11:26:17;9.55;;;7.38;;
20008;SDS011;10165;42.662;23.260;2023-06-22T11:28:44;11.20;;;7.32;;
20008;SDS011;10165;42.662;23.260;2023-06-22T11:31:11;9.13;;;6.90;;
20008;SDS011;10165;42.662;23.260;2023-06-22T11:33:51;9.50;;;6.80;;
20008;SDS011;10165;42.662;23.260;2023-06-22T11:36:18;9.82;;;7.75;;
20008;SDS011;10165;42.662;23.260;2023-06-22T11:38:46;8.65;;;7.05;;
20008;SDS011;10165;42.662;23.260;2023-06-22T11:41:12;12.98;;;8.05;;
20008;SDS011;10165;42.662;23.260;2023-06-22T11:43:40;7.63;;;6.57;;
20008;SDS011;10165;42.662;23.260;2023-06-22T11:46:06;10.52;;;6.40;;
20008;SDS011;10165;42.662;23.260;2023-06-22T11:48:33;9.38;;;7.35;;
20008;SDS011;10165;42.662;23.260;2023-06-22T11:51:00;11.40;;;7.55;;
20008;SDS011;10165;42.662;23.260;2023-06-22T11:53:29;14.73;;;7.78;;
20008;SDS011;10165;42.662;23.260;2023-06-22T11:55:56;9.40;;;7.85;;
20008;SDS011;10165;42.662;23.260;2023-06-22T11:58:23;18.13;;;7.70;;
20008;SDS011;10165;42.662;23.260;2023-06-22T12:00:49;9.77;;;7.70;;
20008;SDS011;10165;42.662;23.260;2023-06-22T12:03:18;9.02;;;6.93;;
20008;SDS011;10165;42.662;23.260;2023-06-22T12:05:46;10.40;;;8.20;;
20008;SDS011;10165;42.662;23.260;2023-06-22T12:08:12;14.30;;;8.48;;
20008;SDS011;10165;42.662;23.260;2023-06-22T12:10:40;8.77;;;7.88;;
20008;SDS011;10165;42.662;23.260;2023-06-22T12:13:07;11.85;;;8.90;;
20008;SDS011;10165;42.662;23.260;2023-06-22T12:15:33;10.40;;;8.20;;
20008;SDS011;10165;42.662;23.260;2023-06-22T12:18:00;13.15;;;8.32;;
20008;SDS011;10165;42.662;23.260;2023-06-22T12:20:28;11.80;;;8.15;;
20008;SDS011;10165;42.662;23.260;2023-06-22T12:22:55;11.80;;;8.15;;
20008;SDS011;10165;42.662;23.260;2023-06-22T12:25:24;9.23;;;7.90;;
20008;SDS011;10165;42.662;23.260;2023-06-22T12:27:51;11.93;;;7.95;;
20008;SDS011;10165;42.662;23.260;2023-06-22T12:30:18;9.73;;;7.60;;
20008;SDS011;10165;42.662;23.260;2023-06-22T12:32:45;15.07;;;8.50;;
20008;SDS011;10165;42.662;23.260;2023-06-22T12:35:13;10.97;;;7.63;;
20008;SDS011;10165;42.662;23.260;2023-06-22T12:37:43;12.23;;;7.40;;
20008;SDS011;10165;42.662;23.260;2023-06-22T12:40:10;18.37;;;8.53;;
20008;SDS011;10165;42.662;23.260;2023-06-22T12:42:37;15.03;;;7.57;;
20008;SDS011;10165;42.662;23.260;2023-06-22T12:45:04;12.53;;;7.70;;
20008;SDS011;10165;42.662;23.260;2023-06-22T12:47:31;13.67;;;7.87;;
20008;SDS011;10165;42.662;23.260;2023-06-22T12:49:58;16.63;;;8.33;;
20008;SDS011;10165;42.662;23.260;2023-06-22T12:52:25;11.33;;;6.60;;
20008;SDS011;10165;42.662;23.260;2023-06-22T12:54:52;10.07;;;6.13;;
20008;SDS011;10165;42.662;23.260;2023-06-22T12:57:21;8.57;;;6.07;;
20008;SDS011;10165;42.662;23.260;2023-06-22T12:59:48;10.83;;;6.70;;
20008;SDS011;10165;42.662;23.260;2023-06-22T13:02:15;11.20;;;6.33;;
20008;SDS011;10165;42.662;23.260;2023-06-22T13:04:42;10.60;;;6.40;;
20008;SDS011;10165;42.662;23.260;2023-06-22T13:07:09;9.33;;;6.73;;
20008;SDS011;10165;42.662;23.260;2023-06-22T13:09:48;7.03;;;5.80;;
20008;SDS011;10165;42.662;23.260;2023-06-22T13:12:19;9.63;;;5.70;;
20008;SDS011;10165;42.662;23.260;2023-06-22T13:14:47;7.77;;;5.30;;
20008;SDS011;10165;42.662;23.260;2023-06-22T13:17:13;7.87;;;5.70;;
20008;SDS011;10165;42.662;23.260;2023-06-22T13:19:41;8.50;;;5.07;;
20008;SDS011;10165;42.662;23.260;2023-06-22T13:24:52;8.70;;;5.33;;
20008;SDS011;10165;42.662;23.260;2023-06-22T13:27:21;9.80;;;5.50;;
20008;SDS011;10165;42.662;23.260;2023-06-22T13:29:48;8.80;;;5.63;;
20008;SDS011;10165;42.662;23.260;2023-06-22T13:32:15;10.33;;;6.33;;
20008;SDS011;10165;42.662;23.260;2023-06-22T13:34:42;7.93;;;6.23;;
20008;SDS011;10165;42.662;23.260;2023-06-22T13:37:09;9.43;;;6.13;;
20008;SDS011;10165;42.662;23.260;2023-06-22T13:39:36;6.97;;;5.20;;
20008;SDS011;10165;42.662;23.260;2023-06-22T13:42:03;10.27;;;6.23;;
20008;SDS011;10165;42.662;23.260;2023-06-22T13:44:30;7.97;;;5.80;;
20008;SDS011;10165;42.662;23.260;2023-06-22T13:46:56;11.13;;;6.37;;
20008;SDS011;10165;42.662;23.260;2023-06-22T13:49:23;12.30;;;6.53;;
20008;SDS011;10165;42.662;23.260;2023-06-22T13:51:51;8.87;;;5.97;;
20008;SDS011;10165;42.662;23.260;2023-06-22T13:54:17;7.97;;;5.80;;
20008;SDS011;10165;42.662;23.260;2023-06-22T13:56:55;13.17;;;6.30;;
20008;SDS011;10165;42.662;23.260;2023-06-22T13:59:22;9.90;;;5.60;;
20008;SDS011;10165;42.662;23.260;2023-06-22T14:01:49;8.43;;;6.10;;
20008;SDS011;10165;42.662;23.260;2023-06-22T14:04:16;8.83;;;5.90;;
20008;SDS011;10165;42.662;23.260;2023-06-22T14:06:43;8.90;;;6.20;;
20008;SDS011;10165;42.662;23.260;2023-06-22T14:09:10;8.60;;;5.77;;
20008;SDS011;10165;42.662;23.260;2023-06-22T14:11:36;9.10;;;6.13;;
20008;SDS011;10165;42.662;23.260;2023-06-22T14:14:04;9.67;;;7.00;;
20008;SDS011;10165;42.662;23.260;2023-06-22T14:16:30;10.77;;;6.80;;
20008;SDS011;10165;42.662;23.260;2023-06-22T14:18:57;9.57;;;6.23;;
20008;SDS011;10165;42.662;23.260;2023-06-22T14:21:25;10.03;;;6.40;;
20008;SDS011;10165;42.662;23.260;2023-06-22T14:23:52;8.83;;;5.47;;
20008;SDS011;10165;42.662;23.260;2023-06-22T14:26:25;8.20;;;6.50;;
20008;SDS011;10165;42.662;23.260;2023-06-22T14:28:52;10.87;;;6.47;;
20008;SDS011;10165;42.662;23.260;2023-06-22T14:31:19;12.03;;;6.10;;
20008;SDS011;10165;42.662;23.260;2023-06-22T14:33:47;7.57;;;5.93;;
20008;SDS011;10165;42.662;23.260;2023-06-22T14:36:15;8.83;;;6.13;;
20008;SDS011;10165;42.662;23.260;2023-06-22T14:38:43;8.43;;;6.43;;